sensor_id;sensor_type;location;lat;lon;timestamp;pressure;altitude;pressure_sealevel;temperature;humidity
52469;BME280;38381;53.688;10.776;2023-07-20T00:04:14;100840.69;;;14.62;84.91
52469;BME280;38381;53.688;10.776;2023-07-20T00:09:15;100844.16;;;14.64;85.26
52469;BME280;38381;53.688;10.776;2023-07-20T00:14:15;100844.25;;;14.56;85.34
52469;BME280;38381;53.688;10.776;2023-07-20T00:19:16;100853.81;;;14.51;85.74
52469;BME280;38381;53.688;10.776;2023-07-20T00:24:16;100844.22;;;14.55;85.23
52469;BME280;38381;53.688;10.776;2023-07-20T00:29:17;100845.19;;;14.46;85.63
52469;BME280;38381;53.688;10.776;2023-07-20T00:34:18;100842.56;;;14.44;85.46
52469;BME280;38381;53.688;10.776;2023-07-20T00:39:18;100844.38;;;14.38;86.26
52469;BME280;38381;53.688;10.776;2023-07-20T00:44:19;100837.41;;;14.40;86.06
52469;BME280;38381;53.688;10.776;2023-07-20T00:49:19;100836.53;;;14.36;85.69
52469;BME280;38381;53.688;10.776;2023-07-20T00:54:21;100833.97;;;14.32;85.57
52469;BME280;38381;53.688;10.776;2023-07-20T00:59:23;100837.41;;;14.40;85.45
52469;BME280;38381;53.688;10.776;2023-07-20T01:04:23;100835.69;;;14.33;85.61
52469;BME280;38381;53.688;10.776;2023-07-20T01:14:37;100836.69;;;14.18;86.89
52469;BME280;38381;53.688;10.776;2023-07-20T01:19:37;100832.28;;;14.24;86.64
52469;BME280;38381;53.688;10.776;2023-07-20T01:29:55;100836.56;;;14.33;86.34
52469;BME280;38381;53.688;10.776;2023-07-20T01:35:02;100835.69;;;14.33;86.54
52469;BME280;38381;53.688;10.776;2023-07-20T01:40:05;100835.69;;;14.33;86.18
52469;BME280;38381;53.688;10.776;2023-07-20T01:45:06;100829.63;;;14.31;86.47
52469;BME280;38381;53.688;10.776;2023-07-20T01:50:07;100827.91;;;14.26;86.42
52469;BME280;38381;53.688;10.776;2023-07-20T01:55:08;100833.94;;;14.35;86.30
52469;BME280;38381;53.688;10.776;2023-07-20T02:00:08;100841.78;;;14.35;86.47
52469;BME280;38381;53.688;10.776;2023-07-20T02:05:10;100828.72;;;14.35;86.68
52469;BME280;38381;53.688;10.776;2023-07-20T02:10:10;100833.03;;;14.40;87.01
52469;BME280;38381;53.688;10.776;2023-07-20T02:15:10;100834.00;;;14.28;88.32
52469;BME280;38381;53.688;10.776;2023-07-20T02:20:11;100826.16;;;14.28;88.15
52469;BME280;38381;53.688;10.776;2023-07-20T02:25:12;100835.69;;;14.33;88.49
52469;BME280;38381;53.688;10.776;2023-07-20T02:30:12;100835.75;;;14.26;89.14
52469;BME280;38381;53.688;10.776;2023-07-20T02:35:14;100825.28;;;14.31;88.80
52469;BME280;38381;53.688;10.776;2023-07-20T02:40:15;100834.84;;;14.32;88.83
52469;BME280;38381;53.688;10.776;2023-07-20T02:45:16;100829.63;;;14.29;88.94
52469;BME280;38381;53.688;10.776;2023-07-20T02:50:16;100827.00;;;14.32;89.01
52469;BME280;38381;53.688;10.776;2023-07-20T02:55:17;100837.50;;;14.27;89.33
52469;BME280;38381;53.688;10.776;2023-07-20T03:00:17;100826.16;;;14.27;89.46
52469;BME280;38381;53.688;10.776;2023-07-20T03:05:19;100831.38;;;14.30;89.21
52469;BME280;38381;53.688;10.776;2023-07-20T03:10:20;100849.69;;;14.22;90.03
52469;BME280;38381;53.688;10.776;2023-07-20T03:15:21;100844.47;;;14.24;89.91
52469;BME280;38381;53.688;10.776;2023-07-20T03:20:22;100837.53;;;14.20;90.61
52469;BME280;38381;53.688;10.776;2023-07-20T03:25:22;100846.31;;;14.09;90.84
52469;BME280;38381;53.688;10.776;2023-07-20T03:30:23;100858.41;;;14.18;90.71
52469;BME280;38381;53.688;10.776;2023-07-20T03:35:23;100849.78;;;14.13;91.00
52469;BME280;38381;53.688;10.776;2023-07-20T03:40:24;100848.91;;;14.11;91.49
52469;BME280;38381;53.688;10.776;2023-07-20T03:45:25;100851.47;;;14.14;91.54
52469;BME280;38381;53.688;10.776;2023-07-20T03:50:25;100847.16;;;14.08;91.68
52469;BME280;38381;53.688;10.776;2023-07-20T03:55:26;100853.19;;;14.18;91.44
52469;BME280;38381;53.688;10.776;2023-07-20T04:00:26;100847.97;;;14.18;91.88
52469;BME280;38381;53.688;10.776;2023-07-20T04:05:27;100856.59;;;14.29;91.33
52469;BME280;38381;53.688;10.776;2023-07-20T04:10:27;100855.72;;;14.32;90.96
52469;BME280;38381;53.688;10.776;2023-07-20T04:15:27;100856.59;;;14.29;91.27
52469;BME280;38381;53.688;10.776;2023-07-20T04:20:28;100854.81;;;14.38;90.92
52469;BME280;38381;53.688;10.776;2023-07-20T04:25:29;100859.13;;;14.40;90.32
52469;BME280;38381;53.688;10.776;2023-07-20T04:30:30;100860.00;;;14.41;90.07
52469;BME280;38381;53.688;10.776;2023-07-20T04:35:50;100872.94;;;14.52;89.94
52469;BME280;38381;53.688;10.776;2023-07-20T04:40:51;100872.06;;;14.57;90.19
52469;BME280;38381;53.688;10.776;2023-07-20T04:45:51;100878.13;;;14.61;90.05
52469;BME280;38381;53.688;10.776;2023-07-20T04:50:52;100871.16;;;14.60;89.88
52469;BME280;38381;53.688;10.776;2023-07-20T04:55:52;100867.66;;;14.65;89.49
52469;BME280;38381;53.688;10.776;2023-07-20T05:00:54;100870.25;;;14.67;89.29
52469;BME280;38381;53.688;10.776;2023-07-20T05:05:55;100874.53;;;14.74;89.49
52469;BME280;38381;53.688;10.776;2023-07-20T05:10:55;100878.94;;;14.71;89.72
52469;BME280;38381;53.688;10.776;2023-07-20T05:15:55;100885.84;;;14.75;89.63
52469;BME280;38381;53.688;10.776;2023-07-20T05:20:56;100872.66;;;14.90;89.34
52469;BME280;38381;53.688;10.776;2023-07-20T05:25:58;100871.84;;;14.83;89.19
52469;BME280;38381;53.688;10.776;2023-07-20T05:30:58;100876.06;;;14.98;88.79
52469;BME280;38381;53.688;10.776;2023-07-20T05:35:59;100870.56;;;15.23;87.71
52469;BME280;38381;53.688;10.776;2023-07-20T05:41:00;100876.66;;;15.23;87.88
52469;BME280;38381;53.688;10.776;2023-07-20T05:46:03;100874.72;;;15.42;87.31
52469;BME280;38381;53.688;10.776;2023-07-20T05:51:05;100875.41;;;15.57;86.03
52469;BME280;38381;53.688;10.776;2023-07-20T05:56:06;100877.97;;;15.60;85.56
52469;BME280;38381;53.688;10.776;2023-07-20T06:01:06;100870.88;;;15.71;83.99
52469;BME280;38381;53.688;10.776;2023-07-20T06:06:07;100878.47;;;15.91;84.10
52469;BME280;38381;53.688;10.776;2023-07-20T06:11:09;100877.25;;;16.15;81.79
52469;BME280;38381;53.688;10.776;2023-07-20T06:16:10;100870.41;;;16.64;79.47
52469;BME280;38381;53.688;10.776;2023-07-20T06:21:10;100873.72;;;17.23;77.35
52469;BME280;38381;53.688;10.776;2023-07-20T06:26:11;100872.81;;;17.68;75.53
52469;BME280;38381;53.688;10.776;2023-07-20T06:31:11;100878.28;;;17.99;74.03
52469;BME280;38381;53.688;10.776;2023-07-20T06:36:12;100877.59;;;18.30;71.34
52469;BME280;38381;53.688;10.776;2023-07-20T06:41:12;100882.00;;;18.64;70.54
52469;BME280;38381;53.688;10.776;2023-07-20T06:46:13;100889.06;;;18.62;71.04
52469;BME280;38381;53.688;10.776;2023-07-20T06:51:13;100887.91;;;18.74;69.43
52469;BME280;38381;53.688;10.776;2023-07-20T06:56:14;100882.22;;;18.90;69.09
52469;BME280;38381;53.688;10.776;2023-07-20T07:01:14;100874.94;;;18.66;69.04
52469;BME280;38381;53.688;10.776;2023-07-20T07:06:15;100869.34;;;18.81;68.62
52469;BME280;38381;53.688;10.776;2023-07-20T07:11:15;100868.75;;;18.34;68.34
52469;BME280;38381;53.688;10.776;2023-07-20T07:16:16;100877.69;;;18.61;68.62
52469;BME280;38381;53.688;10.776;2023-07-20T07:21:18;100878.34;;;19.05;66.46
52469;BME280;38381;53.688;10.776;2023-07-20T07:26:19;100882.09;;;18.61;66.00
52469;BME280;38381;53.688;10.776;2023-07-20T07:31:20;100871.69;;;18.92;65.71
52469;BME280;38381;53.688;10.776;2023-07-20T07:36:21;100872.97;;;19.41;62.86
52469;BME280;38381;53.688;10.776;2023-07-20T07:41:21;100875.56;;;19.74;60.39
52469;BME280;38381;53.688;10.776;2023-07-20T07:46:22;100877.50;;;19.36;61.58
52469;BME280;38381;53.688;10.776;2023-07-20T07:51:23;100882.28;;;18.89;62.31
52469;BME280;38381;53.688;10.776;2023-07-20T07:56:23;100882.38;;;18.50;63.92
52469;BME280;38381;53.688;10.776;2023-07-20T08:01:23;100879.19;;;18.72;63.35
52469;BME280;38381;53.688;10.776;2023-07-20T08:06:24;100887.94;;;18.72;62.44
52469;BME280;38381;53.688;10.776;2023-07-20T08:11:26;100884.59;;;18.65;58.63
52469;BME280;38381;53.688;10.776;2023-07-20T08:16:26;100883.56;;;18.73;57.06
52469;BME280;38381;53.688;10.776;2023-07-20T08:21:27;100886.31;;;19.02;58.47
52469;BME280;38381;53.688;10.776;2023-07-20T08:26:27;100882.50;;;18.80;57.07
52469;BME280;38381;53.688;10.776;2023-07-20T08:31:27;100875.13;;;18.94;57.13
52469;BME280;38381;53.688;10.776;2023-07-20T08:36:28;100887.38;;;18.95;56.60
52469;BME280;38381;53.688;10.776;2023-07-20T08:41:28;100890.13;;;18.90;56.98
52469;BME280;38381;53.688;10.776;2023-07-20T08:46:29;100893.47;;;18.97;58.97
52469;BME280;38381;53.688;10.776;2023-07-20T08:51:30;100891.81;;;19.26;55.56
52469;BME280;38381;53.688;10.776;2023-07-20T08:56:31;100886.09;;;19.43;55.89
52469;BME280;38381;53.688;10.776;2023-07-20T09:01:35;100880.84;;;19.41;54.90
52469;BME280;38381;53.688;10.776;2023-07-20T09:06:36;100885.09;;;19.47;55.99
52469;BME280;38381;53.688;10.776;2023-07-20T09:11:36;100885.47;;;19.33;55.54
52469;BME280;38381;53.688;10.776;2023-07-20T09:17:06;100889.78;;;19.36;55.33
52469;BME280;38381;53.688;10.776;2023-07-20T09:22:12;100912.03;;;19.24;57.04
52469;BME280;38381;53.688;10.776;2023-07-20T09:27:13;100902.25;;;19.29;57.57
52469;BME280;38381;53.688;10.776;2023-07-20T09:32:18;100915.69;;;19.18;56.32
52469;BME280;38381;53.688;10.776;2023-07-20T09:37:23;100920.63;;;18.96;57.42
52469;BME280;38381;53.688;10.776;2023-07-20T09:42:24;100921.75;;;18.87;60.36
52469;BME280;38381;53.688;10.776;2023-07-20T09:47:26;100909.63;;;18.82;60.77
52469;BME280;38381;53.688;10.776;2023-07-20T09:52:29;100908.66;;;19.19;57.43
52469;BME280;38381;53.688;10.776;2023-07-20T09:57:29;100907.00;;;19.47;58.63
52469;BME280;38381;53.688;10.776;2023-07-20T10:02:33;100905.41;;;20.03;55.80
52469;BME280;38381;53.688;10.776;2023-07-20T10:07:36;100903.41;;;20.11;54.89
52469;BME280;38381;53.688;10.776;2023-07-20T10:12:39;100901.78;;;20.35;53.14
52469;BME280;38381;53.688;10.776;2023-07-20T10:17:54;100901.13;;;20.28;54.70
52469;BME280;38381;53.688;10.776;2023-07-20T10:22:58;100881.25;;;20.18;55.41
52469;BME280;38381;53.688;10.776;2023-07-20T10:27:59;100911.91;;;20.19;55.80
52469;BME280;38381;53.688;10.776;2023-07-20T10:33:02;100917.13;;;19.30;62.96
52469;BME280;38381;53.688;10.776;2023-07-20T10:38:03;100917.06;;;18.99;64.10
52469;BME280;38381;53.688;10.776;2023-07-20T10:43:06;100903.22;;;19.25;65.53
52469;BME280;38381;53.688;10.776;2023-07-20T10:48:21;100896.94;;;19.62;62.77
52469;BME280;38381;53.688;10.776;2023-07-20T10:53:22;100897.97;;;19.87;59.98
52469;BME280;38381;53.688;10.776;2023-07-20T10:58:22;100895.19;;;19.92;57.27
52469;BME280;38381;53.688;10.776;2023-07-20T11:03:32;100882.63;;;19.72;54.68
52469;BME280;38381;53.688;10.776;2023-07-20T11:14:03;100920.53;;;18.65;65.50
52469;BME280;38381;53.688;10.776;2023-07-20T11:19:04;100916.81;;;18.36;65.78
52469;BME280;38381;53.688;10.776;2023-07-20T11:24:05;100915.75;;;18.45;67.92
52469;BME280;38381;53.688;10.776;2023-07-20T11:29:06;100921.53;;;18.59;69.06
52469;BME280;38381;53.688;10.776;2023-07-20T11:34:30;100906.94;;;18.85;70.41
52469;BME280;38381;53.688;10.776;2023-07-20T11:39:31;100923.59;;;18.82;68.23
52469;BME280;38381;53.688;10.776;2023-07-20T11:44:31;100922.63;;;18.86;67.10
52469;BME280;38381;53.688;10.776;2023-07-20T11:49:42;100937.44;;;18.53;63.33
52469;BME280;38381;53.688;10.776;2023-07-20T11:54:43;100956.41;;;17.86;66.12
52469;BME280;38381;53.688;10.776;2023-07-20T12:00:00;100960.94;;;17.78;69.50
52469;BME280;38381;53.688;10.776;2023-07-20T12:05:02;100957.53;;;17.72;71.92
52469;BME280;38381;53.688;10.776;2023-07-20T12:10:07;100945.66;;;17.99;72.14
52469;BME280;38381;53.688;10.776;2023-07-20T12:20:28;100949.59;;;18.57;69.57
52469;BME280;38381;53.688;10.776;2023-07-20T12:30:43;100959.22;;;18.19;68.47
52469;BME280;38381;53.688;10.776;2023-07-20T12:35:44;100957.50;;;18.17;68.61
52469;BME280;38381;53.688;10.776;2023-07-20T12:40:44;100956.66;;;18.16;69.83
52469;BME280;38381;53.688;10.776;2023-07-20T12:45:45;100949.50;;;18.23;71.51
52469;BME280;38381;53.688;10.776;2023-07-20T12:50:45;100955.69;;;18.20;71.71
52469;BME280;38381;53.688;10.776;2023-07-20T12:55:46;100947.00;;;18.17;70.91
52469;BME280;38381;53.688;10.776;2023-07-20T13:00:46;100950.59;;;18.13;70.97
52469;BME280;38381;53.688;10.776;2023-07-20T13:05:47;100949.06;;;18.43;69.38
52469;BME280;38381;53.688;10.776;2023-07-20T13:10:48;100947.75;;;18.61;69.43
52469;BME280;38381;53.688;10.776;2023-07-20T13:15:49;100937.78;;;18.75;67.75
52469;BME280;38381;53.688;10.776;2023-07-20T13:20:50;100948.00;;;18.89;67.64
52469;BME280;38381;53.688;10.776;2023-07-20T13:25:50;100951.75;;;18.77;67.46
52469;BME280;38381;53.688;10.776;2023-07-20T13:30:51;100950.81;;;18.81;65.53
52469;BME280;38381;53.688;10.776;2023-07-20T13:35:53;100945.56;;;18.78;66.55
52469;BME280;38381;53.688;10.776;2023-07-20T13:40:54;100953.84;;;18.63;67.78
52469;BME280;38381;53.688;10.776;2023-07-20T13:45:54;100952.00;;;18.66;70.13
52469;BME280;38381;53.688;10.776;2023-07-20T13:50:55;100958.84;;;18.74;71.47
52469;BME280;38381;53.688;10.776;2023-07-20T13:55:55;100951.06;;;18.32;71.49
52469;BME280;38381;53.688;10.776;2023-07-20T14:00:57;100944.34;;;18.57;73.18
52469;BME280;38381;53.688;10.776;2023-07-20T14:05:57;100975.56;;;18.69;70.47
52469;BME280;38381;53.688;10.776;2023-07-20T14:10:58;100988.41;;;18.04;72.64
52469;BME280;38381;53.688;10.776;2023-07-20T14:15:58;100975.72;;;17.82;75.10
52469;BME280;38381;53.688;10.776;2023-07-20T14:20:59;100977.41;;;17.86;75.71
52469;BME280;38381;53.688;10.776;2023-07-20T14:26:00;100985.44;;;17.76;75.69
52469;BME280;38381;53.688;10.776;2023-07-20T14:31:00;100979.41;;;17.72;76.01
52469;BME280;38381;53.688;10.776;2023-07-20T14:36:01;100977.78;;;17.66;75.49
52469;BME280;38381;53.688;10.776;2023-07-20T14:41:02;100976.13;;;17.61;74.41
52469;BME280;38381;53.688;10.776;2023-07-20T14:46:02;100962.06;;;17.63;72.44
52469;BME280;38381;53.688;10.776;2023-07-20T14:51:03;100965.47;;;17.70;74.05
52469;BME280;38381;53.688;10.776;2023-07-20T14:56:03;100957.31;;;17.84;74.25
52469;BME280;38381;53.688;10.776;2023-07-20T15:01:04;100955.41;;;17.92;74.02
52469;BME280;38381;53.688;10.776;2023-07-20T15:06:10;100952.53;;;18.04;72.47
52469;BME280;38381;53.688;10.776;2023-07-20T15:11:11;100952.13;;;18.23;69.50
52469;BME280;38381;53.688;10.776;2023-07-20T15:16:11;100944.91;;;18.33;70.71
52469;BME280;38381;53.688;10.776;2023-07-20T15:21:12;100927.06;;;18.47;71.68
52469;BME280;38381;53.688;10.776;2023-07-20T15:26:12;100930.56;;;18.47;69.39
52469;BME280;38381;53.688;10.776;2023-07-20T15:31:13;100932.22;;;18.52;70.34
52469;BME280;38381;53.688;10.776;2023-07-20T15:36:13;100926.63;;;18.65;70.25
52469;BME280;38381;53.688;10.776;2023-07-20T15:41:14;100923.97;;;18.67;68.86
52469;BME280;38381;53.688;10.776;2023-07-20T15:51:18;100913.09;;;19.17;68.99
52469;BME280;38381;53.688;10.776;2023-07-20T15:56:19;100921.88;;;19.48;64.71
52469;BME280;38381;53.688;10.776;2023-07-20T16:01:19;100919.16;;;19.52;65.14
52469;BME280;38381;53.688;10.776;2023-07-20T16:06:19;100914.94;;;19.13;63.34
52469;BME280;38381;53.688;10.776;2023-07-20T16:11:20;100917.03;;;19.33;64.62
52469;BME280;38381;53.688;10.776;2023-07-20T16:16:24;100913.69;;;19.28;64.27
52469;BME280;38381;53.688;10.776;2023-07-20T16:21:25;100907.38;;;19.01;63.81
52469;BME280;38381;53.688;10.776;2023-07-20T16:26:25;100908.91;;;19.42;66.29
52469;BME280;38381;53.688;10.776;2023-07-20T16:31:26;100903.16;;;19.59;63.24
52469;BME280;38381;53.688;10.776;2023-07-20T16:36:26;100914.28;;;19.69;58.93
52469;BME280;38381;53.688;10.776;2023-07-20T16:41:27;100912.66;;;19.65;56.32
52469;BME280;38381;53.688;10.776;2023-07-20T16:46:27;100920.09;;;19.49;55.68
52469;BME280;38381;53.688;10.776;2023-07-20T16:51:28;100915.56;;;19.23;60.96
52469;BME280;38381;53.688;10.776;2023-07-20T16:56:28;100928.88;;;19.17;63.12
52469;BME280;38381;53.688;10.776;2023-07-20T17:01:29;100929.19;;;19.04;61.38
52469;BME280;38381;53.688;10.776;2023-07-20T17:06:29;100929.78;;;18.81;61.29
52469;BME280;38381;53.688;10.776;2023-07-20T17:11:30;100932.13;;;18.56;63.35
52469;BME280;38381;53.688;10.776;2023-07-20T17:16:30;100928.88;;;18.45;61.42
52469;BME280;38381;53.688;10.776;2023-07-20T17:21:31;100931.38;;;18.49;61.95
52469;BME280;38381;53.688;10.776;2023-07-20T17:26:35;100931.16;;;18.60;63.22
52469;BME280;38381;53.688;10.776;2023-07-20T17:31:36;100922.50;;;18.55;64.12
52469;BME280;38381;53.688;10.776;2023-07-20T17:36:36;100919.06;;;18.52;63.94
52469;BME280;38381;53.688;10.776;2023-07-20T17:41:37;100918.47;;;18.42;64.67
52469;BME280;38381;53.688;10.776;2023-07-20T17:46:38;100913.91;;;18.48;64.63
52469;BME280;38381;53.688;10.776;2023-07-20T17:51:39;100915.75;;;18.43;64.60
52469;BME280;38381;53.688;10.776;2023-07-20T17:56:39;100909.09;;;18.30;65.31
52469;BME280;38381;53.688;10.776;2023-07-20T18:01:40;100908.94;;;18.36;63.53
52469;BME280;38381;53.688;10.776;2023-07-20T18:06:41;100908.91;;;18.38;63.79
52469;BME280;38381;53.688;10.776;2023-07-20T18:11:41;100909.94;;;18.30;64.27
52469;BME280;38381;53.688;10.776;2023-07-20T18:16:42;100907.41;;;18.27;63.05
52469;BME280;38381;53.688;10.776;2023-07-20T18:21:43;100907.47;;;18.24;62.88
52469;BME280;38381;53.688;10.776;2023-07-20T18:26:43;100908.28;;;18.26;62.88
52469;BME280;38381;53.688;10.776;2023-07-20T18:31:44;100899.00;;;18.12;63.00
52469;BME280;38381;53.688;10.776;2023-07-20T18:36:44;100903.50;;;18.06;63.46
52469;BME280;38381;53.688;10.776;2023-07-20T18:41:44;100909.81;;;17.98;63.97
52469;BME280;38381;53.688;10.776;2023-07-20T18:46:45;100908.31;;;17.86;64.77
52469;BME280;38381;53.688;10.776;2023-07-20T18:51:45;100902.63;;;17.64;64.89
52469;BME280;38381;53.688;10.776;2023-07-20T18:57:09;100909.91;;;17.49;65.52
52469;BME280;38381;53.688;10.776;2023-07-20T19:02:09;100906.25;;;17.57;65.57
52469;BME280;38381;53.688;10.776;2023-07-20T19:07:10;100922.84;;;17.59;65.50
52469;BME280;38381;53.688;10.776;2023-07-20T19:12:10;100929.28;;;17.42;65.85
52469;BME280;38381;53.688;10.776;2023-07-20T19:17:11;100930.38;;;17.30;66.52
52469;BME280;38381;53.688;10.776;2023-07-20T19:22:11;100935.69;;;17.27;67.43
52469;BME280;38381;53.688;10.776;2023-07-20T19:27:14;100937.69;;;17.12;67.84
52469;BME280;38381;53.688;10.776;2023-07-20T19:32:14;100942.22;;;17.02;67.34
52469;BME280;38381;53.688;10.776;2023-07-20T19:37:15;100949.44;;;16.91;67.84
52469;BME280;38381;53.688;10.776;2023-07-20T19:42:15;100953.91;;;16.84;67.90
52469;BME280;38381;53.688;10.776;2023-07-20T19:47:16;100963.56;;;16.82;67.17
52469;BME280;38381;53.688;10.776;2023-07-20T19:52:17;100969.91;;;16.64;68.44
52469;BME280;38381;53.688;10.776;2023-07-20T19:57:18;100963.09;;;16.52;68.87
52469;BME280;38381;53.688;10.776;2023-07-20T20:02:18;100967.63;;;16.41;69.15
52469;BME280;38381;53.688;10.776;2023-07-20T20:07:18;100967.63;;;16.41;69.38
52469;BME280;38381;53.688;10.776;2023-07-20T20:12:19;100965.13;;;16.33;69.45
52469;BME280;38381;53.688;10.776;2023-07-20T20:17:19;100965.22;;;16.24;69.98
52469;BME280;38381;53.688;10.776;2023-07-20T20:22:20;100967.06;;;16.19;70.29
52469;BME280;38381;53.688;10.776;2023-07-20T20:27:20;100965.53;;;15.99;70.38
52469;BME280;38381;53.688;10.776;2023-07-20T20:32:21;100971.78;;;15.91;70.81
52469;BME280;38381;53.688;10.776;2023-07-20T20:37:21;100975.25;;;15.91;71.56
52469;BME280;38381;53.688;10.776;2023-07-20T20:42:25;100978.84;;;15.82;71.28
52469;BME280;38381;53.688;10.776;2023-07-20T20:47:25;100978.97;;;15.73;72.55
52469;BME280;38381;53.688;10.776;2023-07-20T20:52:25;100968.50;;;15.70;72.67
52469;BME280;38381;53.688;10.776;2023-07-20T20:57:26;100972.94;;;15.62;72.98
52469;BME280;38381;53.688;10.776;2023-07-20T21:02:27;100961.75;;;15.51;73.78
52469;BME280;38381;53.688;10.776;2023-07-20T21:07:27;100966.16;;;15.45;74.89
52469;BME280;38381;53.688;10.776;2023-07-20T21:12:27;100961.00;;;15.38;74.99
52469;BME280;38381;53.688;10.776;2023-07-20T21:17:28;100957.53;;;15.37;75.63
52469;BME280;38381;53.688;10.776;2023-07-20T21:22:30;100971.47;;;15.36;75.45
52469;BME280;38381;53.688;10.776;2023-07-20T21:27:30;100970.69;;;15.28;75.63
52469;BME280;38381;53.688;10.776;2023-07-20T21:32:30;100970.75;;;15.17;74.69
52469;BME280;38381;53.688;10.776;2023-07-20T21:37:31;100961.16;;;15.19;73.81
52469;BME280;38381;53.688;10.776;2023-07-20T21:42:31;100968.16;;;15.17;74.07
52469;BME280;38381;53.688;10.776;2023-07-20T21:47:32;100969.09;;;15.10;73.70
52469;BME280;38381;53.688;10.776;2023-07-20T21:52:32;100965.59;;;15.16;74.73
52469;BME280;38381;53.688;10.776;2023-07-20T21:57:33;100982.13;;;15.13;73.77
52469;BME280;38381;53.688;10.776;2023-07-20T22:02:34;100970.00;;;15.07;73.53
52469;BME280;38381;53.688;10.776;2023-07-20T22:07:34;100977.81;;;15.11;73.76
52469;BME280;38381;53.688;10.776;2023-07-20T22:12:34;100979.59;;;15.04;74.47
52469;BME280;38381;53.688;10.776;2023-07-20T22:17:35;100977.91;;;14.98;74.77
52469;BME280;38381;53.688;10.776;2023-07-20T22:22:36;100974.44;;;14.95;74.74
52469;BME280;38381;53.688;10.776;2023-07-20T22:27:37;100974.50;;;14.90;75.13
52469;BME280;38381;53.688;10.776;2023-07-20T22:32:37;100968.47;;;14.83;74.95
52469;BME280;38381;53.688;10.776;2023-07-20T22:37:38;100965.84;;;14.82;74.80
52469;BME280;38381;53.688;10.776;2023-07-20T22:42:38;100958.97;;;14.73;75.36
52469;BME280;38381;53.688;10.776;2023-07-20T22:47:39;100952.03;;;14.67;75.38
52469;BME280;38381;53.688;10.776;2023-07-20T22:52:44;100952.88;;;14.71;75.51
52469;BME280;38381;53.688;10.776;2023-07-20T22:57:44;100946.84;;;14.61;76.03
52469;BME280;38381;53.688;10.776;2023-07-20T23:02:45;100953.84;;;14.53;76.65
52469;BME280;38381;53.688;10.776;2023-07-20T23:07:45;100951.28;;;14.45;77.17
52469;BME280;38381;53.688;10.776;2023-07-20T23:12:47;100948.81;;;14.25;77.75
52469;BME280;38381;53.688;10.776;2023-07-20T23:17:47;100946.22;;;14.22;77.91
52469;BME280;38381;53.688;10.776;2023-07-20T23:22:49;100938.47;;;14.04;78.26
52469;BME280;38381;53.688;10.776;2023-07-20T23:27:50;100937.66;;;13.96;78.44
52469;BME280;38381;53.688;10.776;2023-07-20T23:32:51;100944.63;;;13.91;78.26
52469;BME280;38381;53.688;10.776;2023-07-20T23:37:52;100932.47;;;13.88;79.18
52469;BME280;38381;53.688;10.776;2023-07-20T23:42:52;100940.28;;;13.91;80.05
52469;BME280;38381;53.688;10.776;2023-07-20T23:47:53;100929.00;;;13.89;80.29
52469;BME280;38381;53.688;10.776;2023-07-20T23:52:54;100932.53;;;13.80;80.56
52469;BME280;38381;53.688;10.776;2023-07-20T23:57:54;100931.66;;;13.78;80.28
